CA65 weather

Alta Vista Heliport
Watsonville, California, United States

Public forecast

Using degrees Fahrenheit for public forecast. Weather courtesy of forecast.io.

METAR (pilot weather report)

Closest report is Watsonville Municipal Airport, 4.0 nm (7.5 km) ESE. Retrieved 2019/06/18 02:17 UTC (0 seconds ago):

KWVI 180217Z AUTO 25006KT 10SM FEW008 15/11 A2991 RMK AO2 T01500111

TAF (pilot weather forecast)

Forecast is more than 12 hours old.

Closest forecast is Salinas Municipal Airport, 22.2 nm (41.1 km) SSE. Retrieved 2019/06/17 00:42 UTC (1 day ago):

TAF KSNS 172339Z 1800/1824 32014KT P6SM SKC FM180300 32008KT P6SM OVC006 TEMPO 1813/1816 3SM BR BKN003 FM181830 30008KT P6SM BKN010 FM182200 31012KT P6SM SKC